createdAt,value
2018-10-01T00:00:43.628Z,63.20
2018-10-01T00:03:12.517Z,63.20
2018-10-01T00:05:41.266Z,62.40
2018-10-01T00:08:10.291Z,62.90
2018-10-01T00:10:38.901Z,63.20
2018-10-01T00:13:07.462Z,63.60
2018-10-01T00:15:36.051Z,64.10
2018-10-01T00:18:04.608Z,63.60
2018-10-01T00:20:38.544Z,63.10
2018-10-01T00:23:07.089Z,63.50
2018-10-01T00:25:35.663Z,63.20
2018-10-01T00:28:04.173Z,63.80
2018-10-01T00:30:32.997Z,64.10
2018-10-01T00:33:02.210Z,64.50
2018-10-01T00:35:31.658Z,64.50
2018-10-01T00:38:00.170Z,64.50
2018-10-01T00:40:28.699Z,64.60
2018-10-01T00:42:57.220Z,64.50
2018-10-01T00:45:26.011Z,64.60
2018-10-01T00:47:54.574Z,64.50
2018-10-01T00:50:23.162Z,64.70
2018-10-01T00:52:51.960Z,64.10
2018-10-01T00:55:21.216Z,64.50
2018-10-01T00:57:50.487Z,64.50
2018-10-01T01:00:19.115Z,64.40
2018-10-01T01:02:48.257Z,64.30
2018-10-01T01:05:18.103Z,64.40
2018-10-01T01:07:46.969Z,64.40
2018-10-01T01:10:16.446Z,64.40
2018-10-01T01:12:45.187Z,64.60
2018-10-01T01:15:13.929Z,64.40
2018-10-01T01:17:42.521Z,64.40
2018-10-01T01:20:12.030Z,64.40
2018-10-01T01:22:40.586Z,64.40
2018-10-01T01:25:09.193Z,64.20
2018-10-01T01:27:38.322Z,65.30
2018-10-01T01:30:06.905Z,65.30
2018-10-01T01:32:35.394Z,65.80
2018-10-01T01:35:03.931Z,66.80
2018-10-01T01:37:32.434Z,65.80
2018-10-01T01:40:00.977Z,66.70
2018-10-01T01:42:29.542Z,67.00
2018-10-01T01:44:58.114Z,66.80
2018-10-01T01:47:26.612Z,66.70
2018-10-01T01:49:55.153Z,65.90
2018-10-01T01:52:23.651Z,66.20
2018-10-01T01:54:53.110Z,66.50
2018-10-01T01:57:22.827Z,66.40
2018-10-01T01:59:51.431Z,66.50
2018-10-01T02:02:19.939Z,66.10
2018-10-01T02:04:48.467Z,66.40
2018-10-01T02:07:17.255Z,66.70
2018-10-01T02:09:47.134Z,66.80
2018-10-01T02:12:15.690Z,66.70
2018-10-01T02:14:44.247Z,66.70
2018-10-01T02:17:12.988Z,66.30
2018-10-01T02:19:41.558Z,66.40
2018-10-01T02:22:10.285Z,66.10
2018-10-01T02:24:38.840Z,66.60
2018-10-01T02:27:07.475Z,67.40
2018-10-01T02:29:36.006Z,66.90
2018-10-01T02:32:04.538Z,66.40
2018-10-01T02:34:33.131Z,66.40
2018-10-01T02:37:01.654Z,66.80
2018-10-01T02:39:30.284Z,67.00
2018-10-01T02:41:58.802Z,67.20
2018-10-01T02:44:28.070Z,66.50
2018-10-01T02:46:56.574Z,67.00
2018-10-01T02:49:25.438Z,66.20
2018-10-01T02:51:59.646Z,66.50
2018-10-01T02:54:32.880Z,66.80
2018-10-01T02:57:02.429Z,66.70
2018-10-01T02:59:31.285Z,67.10
2018-10-01T03:01:59.852Z,66.60
2018-10-01T03:04:28.921Z,67.30
2018-10-01T03:06:57.914Z,67.10
2018-10-01T03:09:27.049Z,67.50
2018-10-01T03:11:55.669Z,67.10
2018-10-01T03:14:24.763Z,67.00
2018-10-01T03:16:53.327Z,67.60
2018-10-01T03:19:21.806Z,67.40
2018-10-01T03:21:50.362Z,67.90
2018-10-01T03:24:18.875Z,67.70
2018-10-01T03:26:47.414Z,68.30
2018-10-01T03:29:15.956Z,68.40
2018-10-01T03:31:44.547Z,68.30
2018-10-01T03:34:13.047Z,68.40
2018-10-01T03:36:42.013Z,68.30
2018-10-01T03:39:11.090Z,68.30
2018-10-01T03:41:40.438Z,67.90
2018-10-01T03:44:09.010Z,68.90
2018-10-01T03:46:37.563Z,68.30
2018-10-01T03:49:06.176Z,68.20
2018-10-01T03:51:34.665Z,68.30
2018-10-01T03:54:03.531Z,68.30
2018-10-01T03:56:32.024Z,67.50
2018-10-01T03:59:00.620Z,67.90
2018-10-01T04:01:29.350Z,68.30
2018-10-01T04:03:57.902Z,68.30
2018-10-01T04:06:26.396Z,69.10
2018-10-01T04:08:55.094Z,68.90
2018-10-01T04:11:23.549Z,68.50
2018-10-01T04:13:52.097Z,68.50
2018-10-01T04:16:20.592Z,68.50
2018-10-01T04:18:49.142Z,68.50
2018-10-01T04:21:17.737Z,68.50
2018-10-01T04:23:46.273Z,68.40
2018-10-01T04:26:14.804Z,68.90
2018-10-01T04:28:43.367Z,68.90
2018-10-01T04:31:11.879Z,69.10
2018-10-01T04:33:40.489Z,69.20
2018-10-01T04:36:08.989Z,68.60
2018-10-01T04:38:38.726Z,69.20
2018-10-01T04:41:07.634Z,69.10
2018-10-01T04:43:36.174Z,68.80
2018-10-01T04:46:04.923Z,69.40
2018-10-01T04:48:33.438Z,69.30
2018-10-01T04:51:01.924Z,69.60
2018-10-01T04:53:30.482Z,69.70
2018-10-01T04:55:59.022Z,69.20
2018-10-01T04:58:27.707Z,69.10
2018-10-01T05:00:56.434Z,69.70
2018-10-01T05:03:24.946Z,69.80
2018-10-01T05:05:53.509Z,69.90
2018-10-01T05:08:22.248Z,70.30
2018-10-01T05:10:50.974Z,69.80
2018-10-01T05:13:19.855Z,70.20
2018-10-01T05:15:48.414Z,70.60
2018-10-01T05:18:18.336Z,70.60
2018-10-01T05:20:46.876Z,70.60
2018-10-01T05:23:15.599Z,70.30
2018-10-01T05:25:44.170Z,70.30
2018-10-01T05:28:12.727Z,70.40
2018-10-01T05:30:41.650Z,69.80
2018-10-01T05:33:10.663Z,69.60
2018-10-01T05:35:39.340Z,69.30
2018-10-01T05:38:07.830Z,69.40
2018-10-01T05:40:36.446Z,69.80
2018-10-01T05:43:04.966Z,70.20
2018-10-01T05:45:33.735Z,69.90
2018-10-01T05:48:02.453Z,70.60
2018-10-01T05:50:31.219Z,71.20
2018-10-01T05:53:00.087Z,71.50
2018-10-01T05:55:28.602Z,72.10
2018-10-01T05:57:57.176Z,72.70
2018-10-01T06:00:26.390Z,73.20
2018-10-01T06:02:54.986Z,73.20
2018-10-01T06:05:23.461Z,73.60
2018-10-01T06:07:52.034Z,74.20
2018-10-01T06:10:20.565Z,74.20
2018-10-01T06:12:51.170Z,74.30
2018-10-01T06:15:19.727Z,74.40
2018-10-01T06:17:48.361Z,74.50
2018-10-01T06:20:17.808Z,74.70
2018-10-01T06:22:47.563Z,75.00
2018-10-01T06:25:16.227Z,74.60
2018-10-01T06:27:44.713Z,74.00
2018-10-01T06:30:13.284Z,74.00
2018-10-01T06:32:42.074Z,73.10
2018-10-01T06:35:11.568Z,72.40
2018-10-01T06:37:40.306Z,71.70
2018-10-01T06:40:08.953Z,71.60
2018-10-01T06:42:37.527Z,70.70
2018-10-01T06:45:06.085Z,70.00
2018-10-01T06:47:34.642Z,68.50
2018-10-01T06:50:03.264Z,67.20
2018-10-01T06:52:32.928Z,67.10
2018-10-01T06:55:01.461Z,66.80
2018-10-01T06:57:30.002Z,66.60
2018-10-01T06:59:58.679Z,66.50
2018-10-01T07:02:27.234Z,66.70
2018-10-01T07:04:55.782Z,66.60
2018-10-01T07:07:24.341Z,66.80
2018-10-01T07:09:52.895Z,67.00
2018-10-01T07:12:21.448Z,67.20
2018-10-01T07:14:50.047Z,66.70
2018-10-01T07:17:18.879Z,66.90
2018-10-01T07:19:47.347Z,67.20
2018-10-01T07:22:15.879Z,67.30
2018-10-01T07:24:44.746Z,67.00
2018-10-01T07:27:13.286Z,66.70
2018-10-01T07:29:42.068Z,66.40
2018-10-01T07:32:10.722Z,66.50
2018-10-01T07:34:39.403Z,64.90
2018-10-01T07:37:08.298Z,65.10
2018-10-01T07:39:36.882Z,64.10
2018-10-01T07:42:05.505Z,62.80
2018-10-01T07:44:41.868Z,62.10
2018-10-01T07:47:10.463Z,60.80
2018-10-01T07:49:39.004Z,60.80
2018-10-01T07:52:07.590Z,60.70
2018-10-01T07:54:36.125Z,60.60
2018-10-01T07:57:05.130Z,60.80
2018-10-01T07:59:33.765Z,60.40
2018-10-01T08:02:02.265Z,59.30
2018-10-01T08:04:30.881Z,59.20
2018-10-01T08:06:59.432Z,58.70
2018-10-01T08:09:28.055Z,57.70
2018-10-01T08:11:56.686Z,57.10
2018-10-01T08:14:25.396Z,55.20
2018-10-01T08:16:53.931Z,55.30
2018-10-01T08:19:22.445Z,55.30
2018-10-01T08:21:51.067Z,55.40
2018-10-01T08:24:20.279Z,55.40
2018-10-01T08:26:48.792Z,54.50
2018-10-01T08:29:17.398Z,54.00
2018-10-01T08:31:46.387Z,53.30
2018-10-01T08:34:15.107Z,52.90
2018-10-01T08:36:43.660Z,52.80
2018-10-01T08:39:14.312Z,52.90
2018-10-01T08:41:43.154Z,52.30
2018-10-01T08:44:12.714Z,52.20
2018-10-01T08:46:41.565Z,52.50
2018-10-01T08:49:17.727Z,52.10
2018-10-01T08:51:52.018Z,51.70
2018-10-01T08:54:28.611Z,51.60
2018-10-01T08:56:57.171Z,51.70
2018-10-01T08:59:25.840Z,51.20
2018-10-01T09:01:54.770Z,51.40
2018-10-01T09:04:23.780Z,51.50
2018-10-01T09:06:52.695Z,51.50
2018-10-01T09:09:21.960Z,51.50
2018-10-01T09:11:50.590Z,51.70
2018-10-01T09:14:19.219Z,50.90
2018-10-01T09:16:47.740Z,50.10
2018-10-01T09:19:16.342Z,50.10
2018-10-01T09:21:44.901Z,50.30
2018-10-01T09:24:13.469Z,50.40
2018-10-01T09:26:42.655Z,50.30
2018-10-01T09:29:11.548Z,49.50
2018-10-01T09:31:40.138Z,49.90
2018-10-01T09:34:08.660Z,50.20
2018-10-01T09:36:37.302Z,50.60
2018-10-01T09:39:08.583Z,50.70
2018-10-01T09:41:37.598Z,50.90
2018-10-01T09:44:06.178Z,50.90
2018-10-01T09:46:35.439Z,50.90
2018-10-01T09:49:04.490Z,50.50
2018-10-01T09:51:33.089Z,50.10
2018-10-01T09:54:02.291Z,49.60
2018-10-01T09:56:31.474Z,49.20
2018-10-01T09:59:00.180Z,48.90
2018-10-01T10:01:28.791Z,48.80
2018-10-01T10:03:57.668Z,48.80
2018-10-01T10:06:26.229Z,48.90
2018-10-01T10:08:54.755Z,48.60
2018-10-01T10:11:23.628Z,48.10
2018-10-01T10:13:52.233Z,48.00
2018-10-01T10:16:21.032Z,47.70
2018-10-01T10:18:49.649Z,47.50
2018-10-01T10:21:18.350Z,47.10
2018-10-01T10:23:47.255Z,47.20
2018-10-01T10:26:16.956Z,47.20
2018-10-01T10:28:45.745Z,47.50
2018-10-01T10:31:14.275Z,46.80
2018-10-01T10:33:43.076Z,45.60
2018-10-01T10:36:11.791Z,45.30
2018-10-01T10:38:40.622Z,45.30
2018-10-01T10:41:09.101Z,45.40
2018-10-01T10:43:37.748Z,44.50
2018-10-01T10:46:06.417Z,44.40
2018-10-01T10:48:34.978Z,44.40
2018-10-01T10:51:03.531Z,44.40
2018-10-01T10:53:32.906Z,43.10
2018-10-01T10:56:01.686Z,42.40
2018-10-01T10:58:30.361Z,43.00
2018-10-01T11:00:59.242Z,43.60
2018-10-01T11:03:27.870Z,43.70
2018-10-01T11:05:56.484Z,44.10
2018-10-01T11:08:25.156Z,44.50
2018-10-01T11:10:53.774Z,44.50
2018-10-01T11:13:22.363Z,44.30
2018-10-01T11:15:51.005Z,43.80
2018-10-01T11:18:19.625Z,43.70
2018-10-01T11:20:48.854Z,43.70
2018-10-01T11:23:18.091Z,43.80
2018-10-01T11:25:46.678Z,43.90
2018-10-01T11:28:15.289Z,44.40
2018-10-01T11:30:44.183Z,44.10
2018-10-01T11:33:12.829Z,44.20
2018-10-01T11:35:42.186Z,44.50
2018-10-01T11:38:10.801Z,44.70
2018-10-01T11:40:39.390Z,44.30
2018-10-01T11:43:08.258Z,44.40
2018-10-01T11:45:36.860Z,44.20
2018-10-01T11:48:05.461Z,43.90
2018-10-01T11:50:33.982Z,44.30
2018-10-01T11:53:02.628Z,44.30
2018-10-01T11:55:31.164Z,43.80
2018-10-01T11:57:59.761Z,43.70
2018-10-01T12:00:28.889Z,44.20
2018-10-01T12:02:57.693Z,44.50
2018-10-01T12:05:26.467Z,44.80
2018-10-01T12:07:55.043Z,44.80
2018-10-01T12:10:23.598Z,45.30
2018-10-01T12:12:52.227Z,45.70
2018-10-01T12:15:20.889Z,46.10
2018-10-01T12:17:49.608Z,46.00
2018-10-01T12:20:18.343Z,45.90
2018-10-01T12:22:47.107Z,46.10
2018-10-01T12:25:15.609Z,46.10
2018-10-01T12:27:44.592Z,46.10
2018-10-01T12:30:13.186Z,46.10
2018-10-01T12:32:41.830Z,46.10
2018-10-01T12:35:10.414Z,46.10
2018-10-01T12:37:40.544Z,46.20
2018-10-01T12:40:09.319Z,46.20
2018-10-01T12:42:38.066Z,46.20
2018-10-01T12:45:07.642Z,46.10
2018-10-01T12:47:36.553Z,46.00
2018-10-01T12:50:05.227Z,46.40
2018-10-01T12:52:34.264Z,46.20
2018-10-01T12:55:03.122Z,47.30
2018-10-01T12:57:31.755Z,47.10
2018-10-01T13:00:00.508Z,47.20
2018-10-01T13:02:29.048Z,47.60
2018-10-01T13:04:57.665Z,48.20
2018-10-01T13:07:26.228Z,48.70
2018-10-01T13:09:54.935Z,48.20
2018-10-01T13:12:23.631Z,48.40
2018-10-01T13:14:52.098Z,48.30
2018-10-01T13:17:21.022Z,48.80
2018-10-01T13:19:49.673Z,49.20
2018-10-01T13:22:18.249Z,50.20
2018-10-01T13:24:47.145Z,51.20
2018-10-01T13:27:15.788Z,52.10
2018-10-01T13:29:44.369Z,52.00
2018-10-01T13:32:12.924Z,51.70
2018-10-01T13:34:41.631Z,51.60
2018-10-01T13:37:10.161Z,51.80
2018-10-01T13:39:38.682Z,51.80
2018-10-01T13:42:07.504Z,51.90
2018-10-01T13:44:36.040Z,51.90
2018-10-01T13:47:04.620Z,52.50
2018-10-01T13:49:33.195Z,53.60
2018-10-01T13:52:01.862Z,54.10
2018-10-01T13:54:31.308Z,54.30
2018-10-01T13:57:00.641Z,57.80
2018-10-01T13:59:29.697Z,65.50
2018-10-01T14:01:58.517Z,65.40
2018-10-01T14:04:27.430Z,69.50
2018-10-01T14:06:56.522Z,70.30
2018-10-01T14:09:25.050Z,68.90
2018-10-01T14:11:53.925Z,68.80
2018-10-01T14:14:22.501Z,67.80
2018-10-01T14:16:51.081Z,68.20
2018-10-01T14:19:19.931Z,66.30
2018-10-01T14:21:48.341Z,66.90
2018-10-01T14:24:16.949Z,67.00
2018-10-01T14:26:45.483Z,66.40
2018-10-01T14:29:14.313Z,65.80
2018-10-01T14:31:43.096Z,67.20
2018-10-01T14:34:11.662Z,66.10
2018-10-01T14:36:40.219Z,65.10
2018-10-01T14:39:09.162Z,64.80
2018-10-01T14:41:37.677Z,64.80
2018-10-01T14:44:06.554Z,63.80
2018-10-01T14:46:35.971Z,64.00
2018-10-01T14:49:04.819Z,63.60
2018-10-01T14:51:34.504Z,64.10
2018-10-01T14:54:03.087Z,64.40
2018-10-01T14:56:31.615Z,65.40
2018-10-01T14:59:00.195Z,65.50
2018-10-01T15:01:28.723Z,66.60
2018-10-01T15:03:57.551Z,66.80
2018-10-01T15:06:26.223Z,67.70
2018-10-01T15:08:55.027Z,67.30
2018-10-01T15:11:23.559Z,68.40
2018-10-01T15:13:52.355Z,69.20
2018-10-01T15:16:20.945Z,69.20
2018-10-01T15:18:49.516Z,69.90
2018-10-01T15:21:18.725Z,70.20
2018-10-01T15:23:47.314Z,70.90
2018-10-01T15:26:16.011Z,71.40
2018-10-01T15:28:44.848Z,71.80
2018-10-01T15:31:13.515Z,71.80
2018-10-01T15:33:42.867Z,71.90
2018-10-01T15:36:11.438Z,71.80
2018-10-01T15:38:40.767Z,71.90
2018-10-01T15:41:09.586Z,72.20
2018-10-01T15:43:38.829Z,71.80
2018-10-01T15:46:07.771Z,71.90
2018-10-01T15:48:36.393Z,72.80
2018-10-01T15:51:05.054Z,73.50
2018-10-01T15:53:34.200Z,73.60
2018-10-01T15:56:02.799Z,73.70
2018-10-01T15:58:31.558Z,74.10
2018-10-01T16:01:00.265Z,75.00
2018-10-01T16:03:29.302Z,74.90
2018-10-01T16:05:58.401Z,74.40
2018-10-01T16:08:26.922Z,74.90
2018-10-01T16:10:55.851Z,76.10
2018-10-01T16:13:25.384Z,76.10
2018-10-01T16:15:54.363Z,76.10
2018-10-01T16:18:23.013Z,76.00
2018-10-01T16:20:51.879Z,76.10
2018-10-01T16:23:20.532Z,76.80
2018-10-01T16:25:49.423Z,77.20
2018-10-01T16:28:20.095Z,77.50
2018-10-01T16:30:48.719Z,78.00
2018-10-01T16:33:17.607Z,78.50
2018-10-01T16:35:46.229Z,80.00
2018-10-01T16:38:14.893Z,80.10
2018-10-01T16:40:43.655Z,80.20
2018-10-01T16:43:12.262Z,80.20
2018-10-01T16:45:41.043Z,80.20
2018-10-01T16:48:09.700Z,80.20
2018-10-01T16:50:38.538Z,79.90
2018-10-01T16:53:07.476Z,80.10
2018-10-01T16:55:36.054Z,79.40
2018-10-01T16:58:04.725Z,79.10
2018-10-01T17:00:33.262Z,78.70
2018-10-01T17:03:01.835Z,79.70
2018-10-01T17:05:35.271Z,79.20
2018-10-01T17:08:03.822Z,79.90
2018-10-01T17:10:32.498Z,79.10
2018-10-01T17:13:01.062Z,78.50
2018-10-01T17:15:29.699Z,78.90
2018-10-01T17:17:58.270Z,78.70
2018-10-01T17:20:26.858Z,78.70
2018-10-01T17:22:55.503Z,79.40
2018-10-01T17:25:26.858Z,79.20
2018-10-01T17:27:59.318Z,79.10
2018-10-01T17:30:28.234Z,79.40
2018-10-01T17:32:56.909Z,78.90
2018-10-01T17:35:25.775Z,79.30
2018-10-01T17:37:54.712Z,78.70
2018-10-01T17:40:23.336Z,78.40
2018-10-01T17:42:51.947Z,78.20
2018-10-01T17:45:21.159Z,77.20
2018-10-01T17:47:50.304Z,79.90
2018-10-01T17:50:18.989Z,81.10
2018-10-01T17:52:47.591Z,81.80
2018-10-01T17:55:16.804Z,84.00
2018-10-01T17:57:45.630Z,84.00
2018-10-01T18:00:15.068Z,84.00
2018-10-01T18:02:43.712Z,84.00
2018-10-01T18:05:12.538Z,84.00
2018-10-01T18:07:41.601Z,83.60
2018-10-01T18:10:10.256Z,83.80
2018-10-01T18:12:39.181Z,83.50
2018-10-01T18:15:08.755Z,83.10
2018-10-01T18:17:37.346Z,83.70
2018-10-01T18:20:06.060Z,83.60
2018-10-01T18:22:34.857Z,83.60
2018-10-01T18:25:03.425Z,83.60
2018-10-01T18:27:32.918Z,83.60
2018-10-01T18:30:01.758Z,83.60
2018-10-01T18:32:30.456Z,83.60
2018-10-01T18:34:59.054Z,83.50
2018-10-01T18:37:27.734Z,83.50
2018-10-01T18:39:56.361Z,83.50
2018-10-01T18:42:25.131Z,83.50
2018-10-01T18:44:53.783Z,83.50
2018-10-01T18:47:22.349Z,83.10
2018-10-01T18:49:51.018Z,83.50
2018-10-01T18:52:19.709Z,83.50
2018-10-01T18:54:48.579Z,83.50
2018-10-01T18:57:17.721Z,82.40
2018-10-01T18:59:46.574Z,81.60
2018-10-01T19:02:16.832Z,82.00
2018-10-01T19:04:45.473Z,81.70
2018-10-01T19:07:14.683Z,81.50
2018-10-01T19:09:43.201Z,81.50
2018-10-01T19:12:12.018Z,80.60
2018-10-01T19:14:40.613Z,79.10
2018-10-01T19:17:09.206Z,80.30
2018-10-01T19:19:37.806Z,80.70
2018-10-01T19:22:06.442Z,80.60
2018-10-01T19:24:35.115Z,80.70
2018-10-01T19:27:03.707Z,82.00
2018-10-01T19:29:35.122Z,79.70
2018-10-01T19:32:03.803Z,79.10
2018-10-01T19:34:32.399Z,80.20
2018-10-01T19:37:01.199Z,79.80
2018-10-01T19:39:30.539Z,79.10
2018-10-01T19:41:59.212Z,79.40
2018-10-01T19:44:28.309Z,79.10
2018-10-01T19:46:56.929Z,79.10
2018-10-01T19:49:26.271Z,78.30
2018-10-01T19:51:54.858Z,79.00
2018-10-01T19:54:24.312Z,78.50
2018-10-01T19:56:52.942Z,78.40
2018-10-01T19:59:21.956Z,77.80
2018-10-01T20:01:51.269Z,77.20
2018-10-01T20:04:20.184Z,76.90
2018-10-01T20:06:49.177Z,77.00
2018-10-01T20:09:18.695Z,76.60
2018-10-01T20:11:47.340Z,76.40
2018-10-01T20:14:15.863Z,76.90
2018-10-01T20:16:44.559Z,76.20
2018-10-01T20:19:13.759Z,76.70
2018-10-01T20:21:42.545Z,76.80
2018-10-01T20:24:11.409Z,76.80
2018-10-01T20:26:40.379Z,76.30
2018-10-01T20:29:09.562Z,76.70
2018-10-01T20:31:38.243Z,75.80
2018-10-01T20:34:07.003Z,75.50
2018-10-01T20:36:35.587Z,76.10
2018-10-01T20:39:06.040Z,75.50
2018-10-01T20:41:34.567Z,76.50
2018-10-01T20:44:04.681Z,76.60
2018-10-01T20:46:33.296Z,76.80
2018-10-01T20:49:02.373Z,77.00
2018-10-01T20:51:31.022Z,77.50
2018-10-01T20:53:59.740Z,77.70
2018-10-01T20:56:29.253Z,77.90
2018-10-01T20:58:57.942Z,76.60
2018-10-01T21:01:28.164Z,76.70
2018-10-01T21:03:57.107Z,77.10
2018-10-01T21:06:25.737Z,76.50
2018-10-01T21:08:54.314Z,76.90
2018-10-01T21:11:22.907Z,76.60
2018-10-01T21:13:51.439Z,76.40
2018-10-01T21:16:20.054Z,75.80
2018-10-01T21:18:48.988Z,75.10
2018-10-01T21:21:17.678Z,74.60
2018-10-01T21:23:46.567Z,74.60
2018-10-01T21:26:15.921Z,74.60
2018-10-01T21:28:45.172Z,74.60
2018-10-01T21:31:14.324Z,74.60
2018-10-01T21:33:43.479Z,74.40
2018-10-01T21:36:12.066Z,74.60
2018-10-01T21:38:42.805Z,73.90
2018-10-01T21:41:11.386Z,73.60
2018-10-01T21:43:39.949Z,72.90
2018-10-01T21:46:09.041Z,72.90
2018-10-01T21:48:37.587Z,72.90
2018-10-01T21:51:06.366Z,72.80
2018-10-01T21:53:34.908Z,73.00
2018-10-01T21:56:03.485Z,73.00
2018-10-01T21:58:32.138Z,72.90
2018-10-01T22:01:05.999Z,73.80
2018-10-01T22:03:34.527Z,73.80
2018-10-01T22:06:03.989Z,73.30
2018-10-01T22:08:32.612Z,73.60
2018-10-01T22:11:01.317Z,73.60
2018-10-01T22:13:29.862Z,74.10
2018-10-01T22:15:58.431Z,74.00
2018-10-01T22:18:26.987Z,73.80
2018-10-01T22:20:55.579Z,72.60
2018-10-01T22:23:24.121Z,72.90
2018-10-01T22:25:52.661Z,72.10
2018-10-01T22:28:21.295Z,71.40
2018-10-01T22:30:49.873Z,71.50
2018-10-01T22:33:18.435Z,71.50
2018-10-01T22:35:48.199Z,71.30
2018-10-01T22:38:16.783Z,71.50
2018-10-01T22:40:45.272Z,70.90
2018-10-01T22:43:13.847Z,70.10
2018-10-01T22:45:43.080Z,70.00
2018-10-01T22:48:11.602Z,70.40
2018-10-01T22:50:40.211Z,70.30
2018-10-01T22:53:08.795Z,70.40
2018-10-01T22:55:37.264Z,70.10
2018-10-01T22:58:05.835Z,70.50
2018-10-01T23:00:34.360Z,70.30
2018-10-01T23:03:02.911Z,70.00
2018-10-01T23:05:31.413Z,69.90
2018-10-01T23:07:59.937Z,70.60
2018-10-01T23:10:28.447Z,69.70
2018-10-01T23:12:56.971Z,69.60
2018-10-01T23:15:25.442Z,69.90
2018-10-01T23:17:54.001Z,70.40
2018-10-01T23:20:22.537Z,69.80
2018-10-01T23:22:51.285Z,69.70
2018-10-01T23:25:19.814Z,70.30
2018-10-01T23:27:48.713Z,70.30
2018-10-01T23:30:17.254Z,69.50
2018-10-01T23:32:45.793Z,69.50
2018-10-01T23:35:14.642Z,69.60
2018-10-01T23:37:43.182Z,69.40
2018-10-01T23:40:11.754Z,69.40
2018-10-01T23:42:40.326Z,70.20
2018-10-01T23:45:09.540Z,70.20
2018-10-01T23:47:38.070Z,70.10
2018-10-01T23:50:06.665Z,70.70
2018-10-01T23:52:35.249Z,70.60
2018-10-01T23:55:03.902Z,70.70
2018-10-01T23:57:32.459Z,71.10
